sensor_id;sensor_type;location;lat;lon;timestamp;pressure;altitude;pressure_sealevel;temperature;humidity
77897;BME280;67092;64.282;21.056;2023-03-26T00:00:05;100160.66;;;20.91;23.53
77897;BME280;67092;64.282;21.056;2023-03-26T00:02:30;100158.81;;;20.66;23.73
77897;BME280;67092;64.282;21.056;2023-03-26T00:04:55;100163.23;;;20.94;23.47
77897;BME280;67092;64.282;21.056;2023-03-26T00:07:21;100161.37;;;21.11;23.28
77897;BME280;67092;64.282;21.056;2023-03-26T00:09:46;100164.11;;;21.24;23.09
77897;BME280;67092;64.282;21.056;2023-03-26T00:12:12;100164.06;;;20.86;23.34
77897;BME280;67092;64.282;21.056;2023-03-26T00:14:38;100168.58;;;21.34;22.89
77897;BME280;67092;64.282;21.056;2023-03-26T00:17:03;100165.48;;;21.22;22.95
77897;BME280;67092;64.282;21.056;2023-03-26T00:19:29;100168.26;;;21.14;22.99
77897;BME280;67092;64.282;21.056;2023-03-26T00:21:54;100172.58;;;21.07;23.08
77897;BME280;67092;64.282;21.056;2023-03-26T00:24:20;100174.10;;;20.85;23.23
77897;BME280;67092;64.282;21.056;2023-03-26T00:26:46;100175.98;;;21.02;22.99
77897;BME280;67092;64.282;21.056;2023-03-26T00:29:11;100174.19;;;20.95;23.00
77897;BME280;67092;64.282;21.056;2023-03-26T00:31:37;100176.51;;;20.70;23.01
77897;BME280;67092;64.282;21.056;2023-03-26T00:34:03;100179.29;;;20.87;22.85
77897;BME280;67092;64.282;21.056;2023-03-26T00:36:28;100177.80;;;21.33;22.57
77897;BME280;67092;64.282;21.056;2023-03-26T00:38:54;100179.18;;;21.28;22.83
77897;BME280;67092;64.282;21.056;2023-03-26T00:41:21;100178.59;;;21.08;22.72
77897;BME280;67092;64.282;21.056;2023-03-26T00:43:45;100178.87;;;20.98;22.67
77897;BME280;67092;64.282;21.056;2023-03-26T00:46:11;100181.77;;;21.06;22.82
77897;BME280;67092;64.282;21.056;2023-03-26T00:48:36;100182.59;;;21.10;22.72
77897;BME280;67092;64.282;21.056;2023-03-26T00:51:02;100184.53;;;20.64;22.88
77897;BME280;67092;64.282;21.056;2023-03-26T00:53:28;100185.35;;;20.84;22.62
77897;BME280;67092;64.282;21.056;2023-03-26T00:55:53;100188.72;;;21.00;22.71
77897;BME280;67092;64.282;21.056;2023-03-26T00:58:19;100191.57;;;21.06;22.41
77897;BME280;67092;64.282;21.056;2023-03-26T01:00:47;100191.00;;;21.26;22.43
77897;BME280;67092;64.282;21.056;2023-03-26T01:03:13;100191.42;;;21.43;22.27
77897;BME280;67092;64.282;21.056;2023-03-26T01:05:43;100192.45;;;19.95;22.64
77897;BME280;67092;64.282;21.056;2023-03-26T01:08:04;100199.05;;;21.28;22.12
77897;BME280;67092;64.282;21.056;2023-03-26T01:10:27;100205.78;;;21.02;22.28
77897;BME280;67092;64.282;21.056;2023-03-26T01:12:53;100201.58;;;20.94;22.34
77897;BME280;67092;64.282;21.056;2023-03-26T01:15:18;100202.59;;;20.99;22.45
77897;BME280;67092;64.282;21.056;2023-03-26T01:17:44;100209.43;;;21.30;22.14
77897;BME280;67092;64.282;21.056;2023-03-26T01:20:14;100210.85;;;21.06;22.31
77897;BME280;67092;64.282;21.056;2023-03-26T01:22:36;100214.00;;;21.13;22.03
77897;BME280;67092;64.282;21.056;2023-03-26T01:25:01;100218.01;;;21.15;22.08
77897;BME280;67092;64.282;21.056;2023-03-26T01:27:31;100217.62;;;20.97;22.24
77897;BME280;67092;64.282;21.056;2023-03-26T01:29:54;100224.08;;;21.28;21.90
77897;BME280;67092;64.282;21.056;2023-03-26T01:32:28;100225.21;;;20.75;22.13
77897;BME280;67092;64.282;21.056;2023-03-26T01:34:51;100226.61;;;20.80;22.14
77897;BME280;67092;64.282;21.056;2023-03-26T01:37:16;100230.36;;;21.21;21.92
77897;BME280;67092;64.282;21.056;2023-03-26T01:39:38;100230.60;;;20.89;22.17
77897;BME280;67092;64.282;21.056;2023-03-26T01:42:03;100233.85;;;20.94;22.16
77897;BME280;67092;64.282;21.056;2023-03-26T01:44:29;100233.22;;;21.02;21.82
77897;BME280;67092;64.282;21.056;2023-03-26T01:46:52;100235.42;;;20.98;22.03
77897;BME280;67092;64.282;21.056;2023-03-26T01:49:17;100236.75;;;21.17;21.82
77897;BME280;67092;64.282;21.056;2023-03-26T01:51:42;100242.62;;;21.37;21.45
77897;BME280;67092;64.282;21.056;2023-03-26T01:54:11;100241.87;;;21.14;21.59
77897;BME280;67092;64.282;21.056;2023-03-26T01:56:38;100243.37;;;20.84;21.95
77897;BME280;67092;64.282;21.056;2023-03-26T01:59:08;100245.10;;;21.21;21.64
77897;BME280;67092;64.282;21.056;2023-03-26T02:01:28;100246.81;;;21.16;21.66
77897;BME280;67092;64.282;21.056;2023-03-26T02:03:56;100249.08;;;21.20;21.56
77897;BME280;67092;64.282;21.056;2023-03-26T02:06:20;100250.85;;;20.99;21.72
77897;BME280;67092;64.282;21.056;2023-03-26T02:08:45;100251.32;;;21.10;21.42
77897;BME280;67092;64.282;21.056;2023-03-26T02:11:09;100252.95;;;21.01;21.67
77897;BME280;67092;64.282;21.056;2023-03-26T02:13:33;100250.70;;;20.74;21.63
77897;BME280;67092;64.282;21.056;2023-03-26T02:16:00;100257.36;;;20.90;21.68
77897;BME280;67092;64.282;21.056;2023-03-26T02:18:25;100257.89;;;20.98;21.54
77897;BME280;67092;64.282;21.056;2023-03-26T02:20:50;100257.69;;;21.22;21.29
77897;BME280;67092;64.282;21.056;2023-03-26T02:23:15;100260.49;;;20.90;21.39
77897;BME280;67092;64.282;21.056;2023-03-26T02:25:41;100261.54;;;21.10;21.34
77897;BME280;67092;64.282;21.056;2023-03-26T02:28:07;100260.46;;;20.99;21.38
77897;BME280;67092;64.282;21.056;2023-03-26T02:30:32;100263.98;;;20.81;21.52
77897;BME280;67092;64.282;21.056;2023-03-26T02:32:58;100265.48;;;21.04;21.23
77897;BME280;67092;64.282;21.056;2023-03-26T02:35:23;100270.48;;;20.62;21.38
77897;BME280;67092;64.282;21.056;2023-03-26T02:37:49;100275.28;;;20.94;21.12
77897;BME280;67092;64.282;21.056;2023-03-26T02:40:15;100278.14;;;21.55;20.84
77897;BME280;67092;64.282;21.056;2023-03-26T02:42:40;100281.86;;;20.86;20.94
77897;BME280;67092;64.282;21.056;2023-03-26T02:45:06;100281.45;;;21.38;21.01
77897;BME280;67092;64.282;21.056;2023-03-26T02:47:31;100280.67;;;20.62;21.25
77897;BME280;67092;64.282;21.056;2023-03-26T02:49:57;100287.31;;;20.80;21.28
77897;BME280;67092;64.282;21.056;2023-03-26T02:52:23;100283.25;;;21.16;20.91
77897;BME280;67092;64.282;21.056;2023-03-26T02:54:48;100283.33;;;20.97;21.08
77897;BME280;67092;64.282;21.056;2023-03-26T02:57:14;100284.62;;;20.57;21.14
77897;BME280;67092;64.282;21.056;2023-03-26T02:59:40;100287.72;;;20.82;21.13
77897;BME280;67092;64.282;21.056;2023-03-26T03:02:06;100286.43;;;20.85;21.10
77897;BME280;67092;64.282;21.056;2023-03-26T03:04:31;100291.20;;;20.73;21.19
77897;BME280;67092;64.282;21.056;2023-03-26T03:06:56;100289.22;;;20.93;20.98
77897;BME280;67092;64.282;21.056;2023-03-26T03:09:22;100294.75;;;20.52;21.30
77897;BME280;67092;64.282;21.056;2023-03-26T03:11:48;100290.13;;;20.62;21.18
77897;BME280;67092;64.282;21.056;2023-03-26T03:14:14;100287.11;;;21.27;20.60
77897;BME280;67092;64.282;21.056;2023-03-26T03:16:39;100287.04;;;21.00;20.82
77897;BME280;67092;64.282;21.056;2023-03-26T03:19:05;100288.92;;;21.12;20.65
77897;BME280;67092;64.282;21.056;2023-03-26T03:21:30;100290.50;;;20.78;20.73
77897;BME280;67092;64.282;21.056;2023-03-26T03:23:56;100296.03;;;21.46;20.37
77897;BME280;67092;64.282;21.056;2023-03-26T03:26:23;100296.86;;;21.14;20.58
77897;BME280;67092;64.282;21.056;2023-03-26T03:28:47;100296.83;;;20.89;20.72
77897;BME280;67092;64.282;21.056;2023-03-26T03:31:13;100301.24;;;20.88;20.71
77897;BME280;67092;64.282;21.056;2023-03-26T03:33:38;100303.54;;;20.70;20.82
77897;BME280;67092;64.282;21.056;2023-03-26T03:36:04;100302.31;;;20.72;20.61
77897;BME280;67092;64.282;21.056;2023-03-26T03:38:29;100304.72;;;20.59;20.88
77897;BME280;67092;64.282;21.056;2023-03-26T03:40:55;100314.32;;;20.71;20.76
77897;BME280;67092;64.282;21.056;2023-03-26T03:43:21;100314.22;;;20.86;20.59
77897;BME280;67092;64.282;21.056;2023-03-26T03:45:46;100317.59;;;20.76;20.69
77897;BME280;67092;64.282;21.056;2023-03-26T03:48:12;100319.15;;;20.79;20.66
77897;BME280;67092;64.282;21.056;2023-03-26T03:50:38;100322.05;;;20.89;20.74
77897;BME280;67092;64.282;21.056;2023-03-26T03:53:03;100320.96;;;20.85;20.56
77897;BME280;67092;64.282;21.056;2023-03-26T03:55:29;100322.17;;;20.44;20.65
77897;BME280;67092;64.282;21.056;2023-03-26T03:57:54;100320.99;;;20.77;20.57
77897;BME280;67092;64.282;21.056;2023-03-26T04:00:20;100324.43;;;20.72;20.63
77897;BME280;67092;64.282;21.056;2023-03-26T04:02:46;100324.52;;;20.99;20.36
77897;BME280;67092;64.282;21.056;2023-03-26T04:05:11;100324.44;;;20.97;20.21
77897;BME280;67092;64.282;21.056;2023-03-26T04:07:37;100322.90;;;21.25;20.17
77897;BME280;67092;64.282;21.056;2023-03-26T04:10:04;100325.83;;;21.03;20.25
77897;BME280;67092;64.282;21.056;2023-03-26T04:12:29;100327.87;;;21.04;20.30
77897;BME280;67092;64.282;21.056;2023-03-26T04:14:54;100327.68;;;20.98;20.10
77897;BME280;67092;64.282;21.056;2023-03-26T04:17:20;100331.69;;;20.96;20.25
77897;BME280;67092;64.282;21.056;2023-03-26T04:19:45;100331.60;;;21.25;20.02
77897;BME280;67092;64.282;21.056;2023-03-26T04:22:10;100334.93;;;21.05;20.12
77897;BME280;67092;64.282;21.056;2023-03-26T04:24:36;100337.44;;;20.60;20.27
77897;BME280;67092;64.282;21.056;2023-03-26T04:27:02;100340.42;;;21.03;20.13
77897;BME280;67092;64.282;21.056;2023-03-26T04:29:28;100343.35;;;21.31;19.86
77897;BME280;67092;64.282;21.056;2023-03-26T04:31:54;100346.95;;;20.89;20.19
77897;BME280;67092;64.282;21.056;2023-03-26T04:34:21;100351.01;;;21.26;19.93
77897;BME280;67092;64.282;21.056;2023-03-26T04:36:44;100350.24;;;21.07;19.78
77897;BME280;67092;64.282;21.056;2023-03-26T04:39:11;100350.73;;;21.03;20.02
77897;BME280;67092;64.282;21.056;2023-03-26T04:41:36;100353.10;;;21.12;19.90
77897;BME280;67092;64.282;21.056;2023-03-26T04:44:01;100355.00;;;21.03;20.11
77897;BME280;67092;64.282;21.056;2023-03-26T04:46:27;100360.47;;;20.85;20.09
77897;BME280;67092;64.282;21.056;2023-03-26T04:48:53;100361.77;;;20.94;19.96
77897;BME280;67092;64.282;21.056;2023-03-26T04:51:20;100362.88;;;20.97;19.93
77897;BME280;67092;64.282;21.056;2023-03-26T04:53:46;100364.22;;;20.73;20.16
77897;BME280;67092;64.282;21.056;2023-03-26T04:56:27;100359.60;;;20.86;20.01
77897;BME280;67092;64.282;21.056;2023-03-26T04:58:35;100358.19;;;21.22;19.69
77897;BME280;67092;64.282;21.056;2023-03-26T05:01:01;100362.82;;;20.89;19.75
77897;BME280;67092;64.282;21.056;2023-03-26T05:03:26;100360.86;;;20.83;20.02
77897;BME280;67092;64.282;21.056;2023-03-26T05:05:51;100362.90;;;20.90;19.94
77897;BME280;67092;64.282;21.056;2023-03-26T05:08:17;100368.17;;;20.95;19.74
77897;BME280;67092;64.282;21.056;2023-03-26T05:10:43;100368.77;;;20.71;19.86
77897;BME280;67092;64.282;21.056;2023-03-26T05:13:08;100368.48;;;20.72;19.82
77897;BME280;67092;64.282;21.056;2023-03-26T05:15:34;100370.05;;;21.12;19.70
77897;BME280;67092;64.282;21.056;2023-03-26T05:17:59;100372.77;;;20.59;20.09
77897;BME280;67092;64.282;21.056;2023-03-26T05:20:27;100374.74;;;21.00;19.74
77897;BME280;67092;64.282;21.056;2023-03-26T05:22:51;100374.36;;;21.01;19.70
77897;BME280;67092;64.282;21.056;2023-03-26T05:25:17;100379.73;;;21.08;19.68
77897;BME280;67092;64.282;21.056;2023-03-26T05:27:42;100380.06;;;21.17;19.55
77897;BME280;67092;64.282;21.056;2023-03-26T05:30:08;100379.99;;;20.94;19.70
77897;BME280;67092;64.282;21.056;2023-03-26T05:32:33;100379.79;;;20.84;19.57
77897;BME280;67092;64.282;21.056;2023-03-26T05:34:59;100386.25;;;21.03;19.66
77897;BME280;67092;64.282;21.056;2023-03-26T05:37:24;100387.19;;;20.53;19.84
77897;BME280;67092;64.282;21.056;2023-03-26T05:39:52;100393.21;;;20.97;19.61
77897;BME280;67092;64.282;21.056;2023-03-26T05:42:15;100392.37;;;21.06;19.56
77897;BME280;67092;64.282;21.056;2023-03-26T05:44:41;100390.43;;;20.75;19.77
77897;BME280;67092;64.282;21.056;2023-03-26T05:47:07;100392.93;;;20.50;19.79
77897;BME280;67092;64.282;21.056;2023-03-26T05:49:32;100400.69;;;20.56;19.92
77897;BME280;67092;64.282;21.056;2023-03-26T05:51:58;100398.89;;;20.58;19.78
77897;BME280;67092;64.282;21.056;2023-03-26T05:54:24;100400.78;;;20.72;19.82
77897;BME280;67092;64.282;21.056;2023-03-26T05:56:49;100404.78;;;21.01;19.59
77897;BME280;67092;64.282;21.056;2023-03-26T05:59:15;100404.35;;;20.99;19.61
77897;BME280;67092;64.282;21.056;2023-03-26T06:01:40;100403.00;;;20.67;19.84
77897;BME280;67092;64.282;21.056;2023-03-26T06:04:06;100404.29;;;20.95;19.58
77897;BME280;67092;64.282;21.056;2023-03-26T06:06:32;100408.49;;;20.74;19.69
77897;BME280;67092;64.282;21.056;2023-03-26T06:08:57;100407.67;;;20.65;19.82
77897;BME280;67092;64.282;21.056;2023-03-26T06:11:23;100400.92;;;21.00;19.53
77897;BME280;67092;64.282;21.056;2023-03-26T06:13:48;100405.37;;;20.65;19.75
77897;BME280;67092;64.282;21.056;2023-03-26T06:16:14;100402.49;;;20.75;19.52
77897;BME280;67092;64.282;21.056;2023-03-26T06:18:40;100401.45;;;21.04;19.46
77897;BME280;67092;64.282;21.056;2023-03-26T06:21:06;100404.75;;;21.08;19.42
77897;BME280;67092;64.282;21.056;2023-03-26T06:23:32;100406.55;;;20.89;19.56
77897;BME280;67092;64.282;21.056;2023-03-26T06:25:57;100411.29;;;20.99;19.47
77897;BME280;67092;64.282;21.056;2023-03-26T06:28:22;100411.56;;;20.66;19.59
77897;BME280;67092;64.282;21.056;2023-03-26T06:30:49;100413.82;;;20.76;19.71
77897;BME280;67092;64.282;21.056;2023-03-26T06:33:14;100412.62;;;20.77;19.71
77897;BME280;67092;64.282;21.056;2023-03-26T06:35:39;100416.57;;;20.40;19.75
77897;BME280;67092;64.282;21.056;2023-03-26T06:38:05;100419.14;;;20.70;19.78
77897;BME280;67092;64.282;21.056;2023-03-26T06:40:32;100414.30;;;20.83;19.68
77897;BME280;67092;64.282;21.056;2023-03-26T06:42:56;100414.27;;;20.98;19.53
77897;BME280;67092;64.282;21.056;2023-03-26T06:45:22;100414.74;;;20.81;19.70
77897;BME280;67092;64.282;21.056;2023-03-26T06:47:47;100418.27;;;20.76;19.71
77897;BME280;67092;64.282;21.056;2023-03-26T06:50:13;100417.84;;;21.03;19.50
77897;BME280;67092;64.282;21.056;2023-03-26T06:52:38;100423.68;;;20.86;19.65
77897;BME280;67092;64.282;21.056;2023-03-26T06:55:05;100424.29;;;21.37;19.55
77897;BME280;67092;64.282;21.056;2023-03-26T06:57:29;100423.36;;;20.96;19.68
77897;BME280;67092;64.282;21.056;2023-03-26T06:59:55;100422.01;;;20.96;19.72
77897;BME280;67092;64.282;21.056;2023-03-26T07:02:21;100431.14;;;20.80;19.94
77897;BME280;67092;64.282;21.056;2023-03-26T07:04:46;100429.73;;;21.11;19.61
77897;BME280;67092;64.282;21.056;2023-03-26T07:07:12;100431.09;;;20.97;19.74
77897;BME280;67092;64.282;21.056;2023-03-26T07:09:37;100434.15;;;21.01;19.75
77897;BME280;67092;64.282;21.056;2023-03-26T07:12:03;100438.50;;;20.88;19.70
77897;BME280;67092;64.282;21.056;2023-03-26T07:14:29;100441.45;;;21.61;19.38
77897;BME280;67092;64.282;21.056;2023-03-26T07:16:56;100443.41;;;21.75;19.14
77897;BME280;67092;64.282;21.056;2023-03-26T07:19:20;100444.43;;;21.18;19.57
77897;BME280;67092;64.282;21.056;2023-03-26T07:21:46;100446.12;;;21.46;19.33
77897;BME280;67092;64.282;21.056;2023-03-26T07:24:12;100445.43;;;21.73;19.16
77897;BME280;67092;64.282;21.056;2023-03-26T07:26:44;100448.55;;;21.33;19.27
77897;BME280;67092;64.282;21.056;2023-03-26T07:29:09;100447.92;;;21.56;19.30
77897;BME280;67092;64.282;21.056;2023-03-26T07:31:31;100452.05;;;21.42;19.57
77897;BME280;67092;64.282;21.056;2023-03-26T07:34:00;100457.89;;;21.15;19.84
77897;BME280;67092;64.282;21.056;2023-03-26T07:36:24;100458.48;;;21.50;19.38
77897;BME280;67092;64.282;21.056;2023-03-26T07:38:54;100455.74;;;21.84;18.97
77897;BME280;67092;64.282;21.056;2023-03-26T07:41:16;100456.15;;;21.36;19.36
77897;BME280;67092;64.282;21.056;2023-03-26T07:43:47;100457.52;;;21.01;19.65
77897;BME280;67092;64.282;21.056;2023-03-26T07:46:02;100456.42;;;21.23;19.65
77897;BME280;67092;64.282;21.056;2023-03-26T07:48:36;100460.08;;;21.43;19.52
77897;BME280;67092;64.282;21.056;2023-03-26T07:50:54;100458.38;;;21.25;19.89
77897;BME280;67092;64.282;21.056;2023-03-26T07:53:19;100462.52;;;21.12;19.94
77897;BME280;67092;64.282;21.056;2023-03-26T07:55:51;100459.99;;;21.16;19.73
77897;BME280;67092;64.282;21.056;2023-03-26T07:58:20;100462.36;;;21.12;19.63
77897;BME280;67092;64.282;21.056;2023-03-26T08:00:41;100466.96;;;21.34;19.61
77897;BME280;67092;64.282;21.056;2023-03-26T08:03:20;100471.26;;;21.33;19.76
77897;BME280;67092;64.282;21.056;2023-03-26T08:05:29;100473.79;;;21.25;19.56
77897;BME280;67092;64.282;21.056;2023-03-26T08:08:01;100475.27;;;21.02;19.63
77897;BME280;67092;64.282;21.056;2023-03-26T08:10:22;100476.24;;;21.24;19.47
77897;BME280;67092;64.282;21.056;2023-03-26T08:12:52;100476.69;;;21.28;19.68
77897;BME280;67092;64.282;21.056;2023-03-26T08:15:14;100476.65;;;21.19;19.69
77897;BME280;67092;64.282;21.056;2023-03-26T08:17:38;100480.56;;;21.78;19.30
77897;BME280;67092;64.282;21.056;2023-03-26T08:20:06;100481.74;;;21.58;19.22
77897;BME280;67092;64.282;21.056;2023-03-26T08:22:29;100484.94;;;21.32;19.61
77897;BME280;67092;64.282;21.056;2023-03-26T08:25:03;100489.17;;;21.69;19.52
77897;BME280;67092;64.282;21.056;2023-03-26T08:27:21;100488.72;;;21.32;19.46
77897;BME280;67092;64.282;21.056;2023-03-26T08:29:48;100489.53;;;21.14;19.55
77897;BME280;67092;64.282;21.056;2023-03-26T08:32:13;100493.61;;;21.21;19.47
77897;BME280;67092;64.282;21.056;2023-03-26T08:34:34;100494.81;;;21.59;19.40
77897;BME280;67092;64.282;21.056;2023-03-26T08:36:59;100499.29;;;21.34;19.39
77897;BME280;67092;64.282;21.056;2023-03-26T08:39:25;100496.57;;;21.62;19.39
77897;BME280;67092;64.282;21.056;2023-03-26T08:42:06;100498.27;;;21.28;19.42
77897;BME280;67092;64.282;21.056;2023-03-26T08:46:57;100505.10;;;21.33;19.42
77897;BME280;67092;64.282;21.056;2023-03-26T08:51:52;100502.39;;;21.41;19.38
77897;BME280;67092;64.282;21.056;2023-03-26T08:56:30;100504.44;;;21.29;19.51
77897;BME280;67092;64.282;21.056;2023-03-26T09:03:58;100512.47;;;21.39;19.77
77897;BME280;67092;64.282;21.056;2023-03-26T09:13:38;100515.07;;;21.32;19.80
77897;BME280;67092;64.282;21.056;2023-03-26T09:16:03;100514.87;;;21.63;19.57
77897;BME280;67092;64.282;21.056;2023-03-26T09:23:20;100522.30;;;21.47;19.73
77897;BME280;67092;64.282;21.056;2023-03-26T09:25:43;100521.57;;;21.32;19.64
77897;BME280;67092;64.282;21.056;2023-03-26T09:28:10;100522.65;;;21.41;19.80
77897;BME280;67092;64.282;21.056;2023-03-26T09:30:37;100520.30;;;21.05;20.09
77897;BME280;67092;64.282;21.056;2023-03-26T09:32:59;100517.58;;;21.65;19.60
77897;BME280;67092;64.282;21.056;2023-03-26T09:37:55;100519.97;;;21.42;19.93
77897;BME280;67092;64.282;21.056;2023-03-26T09:40:14;100520.80;;;21.66;19.48
77897;BME280;67092;64.282;21.056;2023-03-26T09:42:40;100521.78;;;21.79;19.43
77897;BME280;67092;64.282;21.056;2023-03-26T09:47:35;100525.04;;;21.09;19.85
77897;BME280;67092;64.282;21.056;2023-03-26T09:49:52;100523.35;;;21.64;19.50
77897;BME280;67092;64.282;21.056;2023-03-26T09:52:23;100522.33;;;21.64;19.68
77897;BME280;67092;64.282;21.056;2023-03-26T09:54:53;100526.88;;;21.18;20.02
77897;BME280;67092;64.282;21.056;2023-03-26T09:57:08;100526.98;;;21.29;19.98
77897;BME280;67092;64.282;21.056;2023-03-26T09:59:47;100527.81;;;21.42;19.66
77897;BME280;67092;64.282;21.056;2023-03-26T10:02:07;100533.44;;;21.24;19.81
77897;BME280;67092;64.282;21.056;2023-03-26T10:04:32;100526.05;;;21.91;19.70
77897;BME280;67092;64.282;21.056;2023-03-26T10:06:52;100532.21;;;21.01;19.97
77897;BME280;67092;64.282;21.056;2023-03-26T10:09:27;100531.87;;;21.29;19.97
77897;BME280;67092;64.282;21.056;2023-03-26T10:14:11;100537.66;;;21.30;19.76
77897;BME280;67092;64.282;21.056;2023-03-26T10:16:36;100535.72;;;21.76;19.41
77897;BME280;67092;64.282;21.056;2023-03-26T10:19:07;100534.31;;;21.69;19.64
77897;BME280;67092;64.282;21.056;2023-03-26T10:21:25;100532.38;;;21.29;19.73
77897;BME280;67092;64.282;21.056;2023-03-26T10:24:00;100538.93;;;21.67;19.95
77897;BME280;67092;64.282;21.056;2023-03-26T10:26:27;100537.52;;;21.27;19.90
77897;BME280;67092;64.282;21.056;2023-03-26T10:28:47;100538.23;;;21.87;19.75
77897;BME280;67092;64.282;21.056;2023-03-26T10:31:18;100534.64;;;21.61;19.49
77897;BME280;67092;64.282;21.056;2023-03-26T10:33:37;100536.57;;;20.85;19.40
77897;BME280;67092;64.282;21.056;2023-03-26T10:38:26;100543.58;;;21.30;19.45
77897;BME280;67092;64.282;21.056;2023-03-26T10:40:56;100546.62;;;21.89;19.10
77897;BME280;67092;64.282;21.056;2023-03-26T10:43:25;100541.04;;;21.97;19.01
77897;BME280;67092;64.282;21.056;2023-03-26T10:50:46;100546.44;;;21.16;19.39
77897;BME280;67092;64.282;21.056;2023-03-26T10:52:58;100548.79;;;21.00;19.53
77897;BME280;67092;64.282;21.056;2023-03-26T10:55:23;100549.51;;;21.22;19.41
77897;BME280;67092;64.282;21.056;2023-03-26T10:57:48;100547.71;;;21.19;19.64
77897;BME280;67092;64.282;21.056;2023-03-26T11:00:17;100554.89;;;21.45;19.49
77897;BME280;67092;64.282;21.056;2023-03-26T11:02:39;100552.99;;;21.63;19.34
77897;BME280;67092;64.282;21.056;2023-03-26T11:07:33;100555.64;;;21.29;19.58
77897;BME280;67092;64.282;21.056;2023-03-26T11:09:59;100553.58;;;21.33;19.72
77897;BME280;67092;64.282;21.056;2023-03-26T11:12:25;100557.02;;;21.37;19.57
77897;BME280;67092;64.282;21.056;2023-03-26T11:14:51;100551.14;;;21.54;19.40
77897;BME280;67092;64.282;21.056;2023-03-26T11:17:15;100550.72;;;21.18;19.52
77897;BME280;67092;64.282;21.056;2023-03-26T11:19:39;100549.57;;;21.54;19.62
77897;BME280;67092;64.282;21.056;2023-03-26T11:22:05;100548.34;;;21.20;19.53
77897;BME280;67092;64.282;21.056;2023-03-26T11:24:37;100547.30;;;21.37;19.75
77897;BME280;67092;64.282;21.056;2023-03-26T11:26:53;100547.09;;;20.80;19.80
77897;BME280;67092;64.282;21.056;2023-03-26T11:29:30;100548.84;;;21.19;19.57
77897;BME280;67092;64.282;21.056;2023-03-26T11:32:08;100548.28;;;21.36;19.79
77897;BME280;67092;64.282;21.056;2023-03-26T11:34:12;100547.12;;;21.09;20.02
77897;BME280;67092;64.282;21.056;2023-03-26T11:36:36;100550.18;;;21.15;19.80
77897;BME280;67092;64.282;21.056;2023-03-26T11:39:02;100551.35;;;21.61;19.67
77897;BME280;67092;64.282;21.056;2023-03-26T11:41:27;100552.95;;;21.06;19.90
77897;BME280;67092;64.282;21.056;2023-03-26T11:43:55;100555.19;;;21.40;19.80
77897;BME280;67092;64.282;21.056;2023-03-26T11:46:19;100555.30;;;21.10;19.85
77897;BME280;67092;64.282;21.056;2023-03-26T11:48:54;100555.73;;;21.13;20.00
77897;BME280;67092;64.282;21.056;2023-03-26T11:51:10;100556.92;;;20.86;19.90
77897;BME280;67092;64.282;21.056;2023-03-26T11:53:35;100557.06;;;21.65;19.49
77897;BME280;67092;64.282;21.056;2023-03-26T11:56:01;100558.71;;;21.71;19.39
77897;BME280;67092;64.282;21.056;2023-03-26T11:58:28;100556.59;;;21.87;19.07
77897;BME280;67092;64.282;21.056;2023-03-26T12:00:51;100555.07;;;21.73;19.12
77897;BME280;67092;64.282;21.056;2023-03-26T12:03:16;100550.89;;;22.24;19.06
77897;BME280;67092;64.282;21.056;2023-03-26T12:05:47;100545.80;;;22.53;18.53
77897;BME280;67092;64.282;21.056;2023-03-26T12:08:16;100544.20;;;21.47;18.74
77897;BME280;67092;64.282;21.056;2023-03-26T12:10:34;100542.39;;;21.99;18.41
77897;BME280;67092;64.282;21.056;2023-03-26T12:13:00;100547.94;;;21.61;18.14
77897;BME280;67092;64.282;21.056;2023-03-26T12:15:24;100546.90;;;21.62;18.02
77897;BME280;67092;64.282;21.056;2023-03-26T12:17:51;100544.67;;;21.27;17.83
77897;BME280;67092;64.282;21.056;2023-03-26T12:20:31;100546.75;;;21.31;17.94
77897;BME280;67092;64.282;21.056;2023-03-26T12:22:41;100546.63;;;21.41;17.68
77897;BME280;67092;64.282;21.056;2023-03-26T12:25:15;100550.18;;;21.47;17.43
77897;BME280;67092;64.282;21.056;2023-03-26T12:27:32;100553.08;;;21.58;17.27
77897;BME280;67092;64.282;21.056;2023-03-26T12:30:07;100553.33;;;21.35;17.26
77897;BME280;67092;64.282;21.056;2023-03-26T12:32:23;100559.66;;;21.50;16.97
77897;BME280;67092;64.282;21.056;2023-03-26T12:34:49;100558.50;;;21.45;16.93
77897;BME280;67092;64.282;21.056;2023-03-26T12:39:41;100559.72;;;21.33;16.73
77897;BME280;67092;64.282;21.056;2023-03-26T12:44:34;100577.15;;;21.87;16.50
77897;BME280;67092;64.282;21.056;2023-03-26T12:47:06;100577.39;;;21.14;16.91
77897;BME280;67092;64.282;21.056;2023-03-26T12:49:22;100579.60;;;21.66;16.94
77897;BME280;67092;64.282;21.056;2023-03-26T12:51:50;100583.49;;;21.70;16.79
77897;BME280;67092;64.282;21.056;2023-03-26T12:54:26;100586.10;;;21.45;16.86
77897;BME280;67092;64.282;21.056;2023-03-26T12:56:44;100577.12;;;21.42;17.06
77897;BME280;67092;64.282;21.056;2023-03-26T12:59:19;100575.40;;;21.75;16.91
77897;BME280;67092;64.282;21.056;2023-03-26T13:01:40;100576.09;;;21.78;16.96
77897;BME280;67092;64.282;21.056;2023-03-26T13:04:07;100573.18;;;21.34;17.26
77897;BME280;67092;64.282;21.056;2023-03-26T13:06:28;100569.34;;;21.25;17.36
77897;BME280;67092;64.282;21.056;2023-03-26T13:11:19;100575.61;;;21.43;17.30
77897;BME280;67092;64.282;21.056;2023-03-26T13:13:52;100575.78;;;21.34;17.24
77897;BME280;67092;64.282;21.056;2023-03-26T13:16:11;100575.42;;;21.44;17.37
77897;BME280;67092;64.282;21.056;2023-03-26T13:18:41;100575.24;;;21.85;17.13